Time;durP1;ratioP1;P1;durP2;ratioP2;P2;SDS_P1;SDS_P2;PMS_P1;PMS_P2;Temp;Humidity;BMP_temperature;BMP_pressure;BME280_temperature;BME280_humidity;BME280_pressure;Samples;Min_cycle;Max_cycle;Signal;HPM_P1;HPM_P2
2023/09/23 00:01:25;;;;;;;;;;;;;;;24.04;46.46;98794.50;4996523;28;20412;-71
2023/09/23 00:03:51;;;;;;;;;;;;;;;24.01;46.54;98794.91;4996031;28;19925;-71
2023/09/23 00:06:16;;;;;;;;;;;;;;;24.01;46.29;98790.38;4994844;28;20019;-71
2023/09/23 00:08:43;;;;;;;;;;;;;;;23.97;46.46;98791.81;4994715;28;20377;-71
2023/09/23 00:11:08;;;;;;;;;;;;;;;23.96;46.51;98797.34;4995153;28;19922;-71
2023/09/23 00:13:33;;;;;;;;;;;;;;;23.91;46.71;98783.78;4995861;28;19917;-71
2023/09/23 00:15:59;;;;;;;;;;;;;;;23.89;46.72;98785.84;4996037;28;19922;-71
2023/09/23 00:18:24;;;;;;;;;;;;;;;23.86;46.72;98781.72;4994591;28;20370;-71
2023/09/23 00:20:49;;;;;;;;;;;;;;;23.84;46.62;98783.78;4994695;28;20443;-72
2023/09/23 00:23:16;;;;;;;;;;;;;;;23.79;46.97;98779.03;4994743;28;20432;-71
2023/09/23 00:25:44;;;;;;;;;;;;;;;23.76;47.12;98776.75;4994580;28;19960;-71
2023/09/23 00:28:11;;;;;;;;;;;;;;;23.76;47.25;98778.59;4994065;28;19965;-71
2023/09/23 00:30:39;;;;;;;;;;;;;;;23.72;47.25;98772.88;4995684;28;20269;-71
2023/09/23 00:33:05;;;;;;;;;;;;;;;23.72;47.27;98783.53;4977990;28;19918;-71
2023/09/23 00:35:31;;;;;;;;;;;;;;;23.70;47.42;98777.56;4995419;28;19924;-71
2023/09/23 00:37:57;;;;;;;;;;;;;;;23.70;47.36;98777.56;4994302;28;19917;-71
2023/09/23 00:40:32;;;;;;;;;;;;;;;23.70;47.47;98771.41;4993328;28;19918;-71
2023/09/23 00:43:07;;;;;;;;;;;;;;;23.69;47.52;98777.75;4994541;28;19968;-71
2023/09/23 00:45:35;;;;;;;;;;;;;;;23.68;47.49;98776.94;4993981;28;19965;-71
2023/09/23 00:48:00;;;;;;;;;;;;;;;23.67;47.79;98772.63;4977652;28;19918;-71
2023/09/23 00:50:26;;;;;;;;;;;;;;;23.65;47.87;98766.69;4977617;28;19941;-71
2023/09/23 00:52:52;;;;;;;;;;;;;;;23.64;47.91;98773.03;4995528;28;19918;-71
2023/09/23 00:55:18;;;;;;;;;;;;;;;23.61;47.96;98773.44;4977155;28;19926;-72
2023/09/23 00:57:47;;;;;;;;;;;;;;;23.61;48.13;98765.44;4993661;28;19945;-73
2023/09/23 01:00:12;;;;;;;;;;;;;;;23.60;48.19;98767.28;4993822;28;19945;-72
2023/09/23 01:02:37;;;;;;;;;;;;;;;23.59;48.20;98773.63;4977478;28;19925;-73
2023/09/23 01:05:05;;;;;;;;;;;;;;;23.56;48.40;98768.72;4995189;28;19975;-72
2023/09/23 01:07:32;;;;;;;;;;;;;;;23.55;48.37;98768.94;4993751;28;19918;-72
2023/09/23 01:09:58;;;;;;;;;;;;;;;23.54;48.18;98772.59;4993536;28;19951;-72
2023/09/23 01:12:23;;;;;;;;;;;;;;;23.53;48.34;98773.63;4993808;28;20427;-72
2023/09/23 01:14:48;;;;;;;;;;;;;;;23.50;48.42;98769.53;4993691;28;20000;-72
2023/09/23 01:17:15;;;;;;;;;;;;;;;23.50;48.40;98772.19;4993565;28;20447;-72
2023/09/23 01:19:41;;;;;;;;;;;;;;;23.48;48.61;98776.88;4993666;28;19917;-72
2023/09/23 01:22:07;;;;;;;;;;;;;;;23.46;48.56;98779.75;4993382;28;20315;-72
2023/09/23 01:24:32;;;;;;;;;;;;;;;23.49;48.76;98775.88;4994516;28;20333;-72
2023/09/23 01:26:58;;;;;;;;;;;;;;;23.48;48.90;98774.22;4994421;28;19922;-72
2023/09/23 01:29:26;;;;;;;;;;;;;;;23.46;48.78;98774.41;4993043;28;19928;-72
2023/09/23 01:32:12;;;;;;;;;;;;;;;23.44;48.90;98780.97;4993222;28;20436;-71
2023/09/23 01:34:38;;;;;;;;;;;;;;;23.42;48.80;98781.19;4976860;28;19957;-71
2023/09/23 01:37:03;;;;;;;;;;;;;;;23.37;49.11;98780.13;4993163;28;19976;-71
2023/09/23 01:39:28;;;;;;;;;;;;;;;23.35;49.14;98780.31;4992953;28;19917;-72
2023/09/23 01:41:54;;;;;;;;;;;;;;;23.35;49.21;98782.16;4993085;28;19918;-72
2023/09/23 01:44:20;;;;;;;;;;;;;;;23.33;49.08;98779.69;4994084;28;19918;-72
2023/09/23 01:46:46;;;;;;;;;;;;;;;23.32;49.16;98780.72;4994090;28;19918;-71
2023/09/23 01:49:11;;;;;;;;;;;;;;;23.31;49.22;98779.09;4994207;28;19940;-71
2023/09/23 01:51:37;;;;;;;;;;;;;;;23.29;49.36;98773.97;4992484;28;19921;-71
2023/09/23 01:54:03;;;;;;;;;;;;;;;23.28;49.22;98782.16;4994195;28;19918;-71
2023/09/23 01:56:31;;;;;;;;;;;;;;;23.25;49.48;98785.19;4993676;28;20016;-71
2023/09/23 01:58:57;;;;;;;;;;;;;;;23.23;49.76;98782.75;4992484;28;19918;-71
2023/09/23 02:01:22;;;;;;;;;;;;;;;23.21;49.81;98786.59;4976774;28;19991;-72
2023/09/23 02:03:49;;;;;;;;;;;;;;;23.21;49.72;98778.63;4992763;28;20399;-72
2023/09/23 02:06:14;;;;;;;;;;;;;;;23.17;49.72;98772.88;4976529;28;19922;-72
2023/09/23 02:08:40;;;;;;;;;;;;;;;23.16;49.86;98781.06;4992924;28;20274;-72
2023/09/23 02:11:05;;;;;;;;;;;;;;;23.18;49.88;98779.00;4993758;28;19918;-71
2023/09/23 02:13:30;;;;;;;;;;;;;;;23.16;49.76;98775.72;4993643;28;20377;-72
2023/09/23 02:15:57;;;;;;;;;;;;;;;23.15;50.13;98776.75;4992510;28;19917;-72
2023/09/23 02:18:23;;;;;;;;;;;;;;;23.14;50.10;98775.94;4993657;28;20392;-72
2023/09/23 02:20:48;;;;;;;;;;;;;;;23.16;50.08;98775.72;4992590;28;19922;-72
2023/09/23 02:23:14;;;;;;;;;;;;;;;23.14;50.20;98783.91;4993339;28;19918;-72
2023/09/23 02:25:39;;;;;;;;;;;;;;;23.12;50.06;98786.78;4993577;28;19929;-72
2023/09/23 02:28:05;;;;;;;;;;;;;;;23.08;50.48;98782.03;4992275;28;19924;-72
2023/09/23 02:30:32;;;;;;;;;;;;;;;23.05;50.41;98779.75;4992096;28;19925;-72
2023/09/23 02:32:58;;;;;;;;;;;;;;;23.03;50.46;98779.94;4976165;28;19973;-72
2023/09/23 02:35:25;;;;;;;;;;;;;;;23.04;50.71;98786.06;4993436;28;19918;-72
2023/09/23 02:37:50;;;;;;;;;;;;;;;23.03;50.42;98787.91;4976230;28;20009;-72
2023/09/23 02:40:16;;;;;;;;;;;;;;;23.03;50.58;98787.91;4992155;28;19960;-72
2023/09/23 02:42:42;;;;;;;;;;;;;;;23.04;50.69;98788.72;4993223;28;19925;-72
2023/09/23 02:45:12;;;;;;;;;;;;;;;23.02;50.75;98788.94;4992135;28;19926;-72
2023/09/23 02:47:37;;;;;;;;;;;;;;;23.01;50.66;98784.63;4993654;28;19918;-73
2023/09/23 02:50:13;;;;;;;;;;;;;;;23.00;50.52;98783.00;4975776;28;19924;-72
2023/09/23 02:52:39;;;;;;;;;;;;;;;23.02;50.83;98788.13;4993332;28;20349;-72
2023/09/23 02:55:07;;;;;;;;;;;;;;;23.01;50.63;98791.78;4991959;28;19980;-72
2023/09/23 02:57:35;;;;;;;;;;;;;;;22.99;50.97;98791.16;4975752;28;19922;-72
2023/09/23 03:00:10;;;;;;;;;;;;;;;22.98;50.63;98793.03;4992539;28;20360;-72
2023/09/23 03:02:38;;;;;;;;;;;;;;;22.94;50.74;98794.41;4993345;28;20346;-72
2023/09/23 03:05:07;;;;;;;;;;;;;;;22.91;50.86;98797.47;4993127;28;19957;-72
2023/09/23 03:07:33;;;;;;;;;;;;;;;22.89;50.75;98799.50;4997122;28;19925;-72
2023/09/23 03:10:00;;;;;;;;;;;;;;;22.91;50.72;98800.97;4980170;28;19918;-72
2023/09/23 03:12:26;;;;;;;;;;;;;;;22.90;50.72;98801.97;4979908;28;20349;-72
2023/09/23 03:14:52;;;;;;;;;;;;;;;22.83;50.72;98803.75;4995734;28;19918;-72
2023/09/23 03:17:21;;;;;;;;;;;;;;;22.81;50.93;98794.34;4996824;28;19972;-72
2023/09/23 03:19:50;;;;;;;;;;;;;;;22.82;51.03;98794.16;4996128;28;19917;-72
2023/09/23 03:22:16;;;;;;;;;;;;;;;22.77;51.09;98799.22;4996592;28;19921;-72
2023/09/23 03:24:41;;;;;;;;;;;;;;;22.77;50.95;98799.22;4995419;28;20060;-72
2023/09/23 03:27:06;;;;;;;;;;;;;;;22.76;51.07;98800.25;4996977;28;20024;-72
2023/09/23 03:29:32;;;;;;;;;;;;;;;22.72;51.31;98799.81;4995390;28;19918;-73
2023/09/23 03:31:58;;;;;;;;;;;;;;;22.69;51.05;98791.38;4997198;28;19926;-72
2023/09/23 03:34:25;;;;;;;;;;;;;;;22.67;51.32;98802.22;4995681;28;19918;-72
2023/09/23 03:36:54;;;;;;;;;;;;;;;22.65;51.22;98798.13;4995799;28;19940;-72
2023/09/23 03:39:20;;;;;;;;;;;;;;;22.66;51.18;98792.63;4995701;28;20361;-72
2023/09/23 03:41:46;;;;;;;;;;;;;;;22.68;51.33;98803.06;4999094;28;19917;-72
2023/09/23 03:44:14;;;;;;;;;;;;;;;22.65;51.19;98801.59;5006192;28;19918;-73
2023/09/23 03:46:40;;;;;;;;;;;;;;;22.63;51.68;98813.44;5005427;28;19945;-71
2023/09/23 03:49:05;;;;;;;;;;;;;;;22.63;51.52;98810.78;5003736;28;19925;-72
2023/09/23 03:51:31;;;;;;;;;;;;;;;22.63;51.47;98811.63;5002273;28;19918;-73
2023/09/23 03:53:56;;;;;;;;;;;;;;;22.64;51.18;98815.09;5002849;28;19964;-73
2023/09/23 03:56:27;;;;;;;;;;;;;;;22.62;51.36;98817.13;4998078;28;19932;-72
2023/09/23 03:58:55;;;;;;;;;;;;;;;22.63;51.35;98816.09;4995532;28;20392;-72
2023/09/23 04:01:21;;;;;;;;;;;;;;;22.64;51.46;98823.06;4996318;28;19924;-73
2023/09/23 04:03:47;;;;;;;;;;;;;;;22.65;51.11;98825.53;4995023;28;19971;-72
2023/09/23 04:06:12;;;;;;;;;;;;;;;22.66;51.39;98827.19;4995112;28;19922;-72
2023/09/23 04:08:37;;;;;;;;;;;;;;;22.67;51.05;98826.16;4994651;28;19922;-73
2023/09/23 04:11:07;;;;;;;;;;;;;;;22.69;51.28;98829.47;4995285;28;20413;-72
2023/09/23 04:13:32;;;;;;;;;;;;;;;22.70;51.03;98831.09;4994794;28;20417;-72
2023/09/23 04:16:00;;;;;;;;;;;;;;;22.75;50.84;98833.19;4994974;28;19960;-71
2023/09/23 04:18:26;;;;;;;;;;;;;;;22.82;50.68;98835.88;4985612;28;20008;-73
2023/09/23 04:20:53;;;;;;;;;;;;;;;22.91;50.78;98827.59;4987435;28;19964;-72
2023/09/23 04:23:18;;;;;;;;;;;;;;;23.01;50.44;98831.72;4975556;28;19918;-72
2023/09/23 04:25:44;;;;;;;;;;;;;;;23.15;50.06;98832.66;4976900;28;20309;-71
2023/09/23 04:28:09;;;;;;;;;;;;;;;23.37;50.56;98828.91;4988703;28;19914;-84
2023/09/23 04:30:34;;;;;;;;;;;;;;;23.88;50.01;98838.34;5000630;28;20349;-85
2023/09/23 04:33:01;;;;;;;;;;;;;;;24.29;48.62;98840.06;5003788;28;19961;-88
2023/09/23 04:35:26;;;;;;;;;;;;;;;24.69;47.78;98832.09;4994790;28;19922;-78
2023/09/23 04:37:52;;;;;;;;;;;;;;;25.21;46.53;98839.41;4995910;28;20428;-72
2023/09/23 04:40:18;;;;;;;;;;;;;;;25.64;45.05;98839.69;4998437;28;19964;-78
2023/09/23 04:42:43;;;;;;;;;;;;;;;26.07;44.30;98843.63;5001033;28;19945;-76
2023/09/23 04:45:09;;;;;;;;;;;;;;;26.61;43.92;98837.88;4983689;28;19981;-75
2023/09/23 04:47:35;;;;;;;;;;;;;;;27.12;41.82;98844.03;4994498;28;19918;-75
2023/09/23 04:50:04;;;;;;;;;;;;;;;27.62;40.69;98847.38;4993954;28;19968;-74
2023/09/23 04:52:30;;;;;;;;;;;;;;;28.17;39.50;98850.22;4978185;28;20373;-75
2023/09/23 04:54:56;;;;;;;;;;;;;;;28.66;38.44;98842.88;4977924;28;20009;-85
2023/09/23 04:57:21;;;;;;;;;;;;;;;29.14;37.70;98844.47;4994439;28;19944;-71
2023/09/23 04:59:46;;;;;;;;;;;;;;;29.60;37.23;98836.56;4994576;28;19924;-78
2023/09/23 05:02:16;;;;;;;;;;;;;;;30.04;36.30;98844.97;4977911;28;19921;-84
2023/09/23 05:04:41;;;;;;;;;;;;;;;30.48;35.05;98847.91;4995076;28;20309;-72
2023/09/23 05:07:07;;;;;;;;;;;;;;;30.87;34.52;98849.00;4993745;28;19922;-74
2023/09/23 05:09:32;;;;;;;;;;;;;;;31.12;34.29;98849.44;4994872;28;20402;-80
2023/09/23 05:11:57;;;;;;;;;;;;;;;31.56;34.35;98854.03;4977646;28;19940;-72
2023/09/23 05:14:25;;;;;;;;;;;;;;;31.85;33.54;98840.31;4994834;28;19918;-77
2023/09/23 05:16:50;;;;;;;;;;;;;;;32.13;32.83;98850.06;4993348;28;19922;-74
2023/09/23 05:19:16;;;;;;;;;;;;;;;32.27;31.99;98842.38;4994628;28;20395;-70
2023/09/23 05:21:42;;;;;;;;;;;;;;;32.46;31.52;98857.13;4994553;28;20324;-72
2023/09/23 05:24:09;;;;;;;;;;;;;;;32.66;31.18;98866.50;4994034;28;19918;-72
2023/09/23 05:26:35;;;;;;;;;;;;;;;32.87;30.82;98861.25;4994322;28;19925;-72
2023/09/23 05:29:00;;;;;;;;;;;;;;;33.08;30.80;98867.56;4991969;28;19918;-75
2023/09/23 05:31:26;;;;;;;;;;;;;;;33.26;30.45;98863.66;4993435;28;19918;-72
2023/09/23 05:33:51;;;;;;;;;;;;;;;33.52;30.46;98873.50;4994217;28;19965;-72
2023/09/23 05:36:17;;;;;;;;;;;;;;;33.78;29.97;98876.34;4976961;28;20008;-73
2023/09/23 05:38:42;;;;;;;;;;;;;;;34.10;29.18;98878.03;4993017;28;19918;-73
2023/09/23 05:41:08;;;;;;;;;;;;;;;34.33;29.01;98878.63;4976853;28;19980;-72
2023/09/23 05:43:33;;;;;;;;;;;;;;;34.57;28.43;98881.59;4994149;28;19918;-73
2023/09/23 05:46:01;;;;;;;;;;;;;;;34.74;28.12;98887.59;4994182;28;19949;-74
2023/09/23 05:48:27;;;;;;;;;;;;;;;34.94;27.68;98885.94;4994375;28;20384;-72
2023/09/23 05:51:01;;;;;;;;;;;;;;;35.23;27.54;98891.56;4993043;28;19953;-71
2023/09/23 05:53:27;;;;;;;;;;;;;;;35.42;27.25;98889.06;4993182;28;20286;-71
2023/09/23 05:55:52;;;;;;;;;;;;;;;35.61;27.12;98891.19;4993738;28;19928;-72
2023/09/23 05:58:17;;;;;;;;;;;;;;;35.81;26.90;98895.75;4993874;28;19926;-72
2023/09/23 06:00:44;;;;;;;;;;;;;;;35.97;26.64;98891.84;4992949;28;19917;-73
2023/09/23 06:03:09;;;;;;;;;;;;;;;36.21;26.17;98896.56;4994029;28;19929;-72
2023/09/23 06:05:34;;;;;;;;;;;;;;;36.39;26.06;98892.41;4993816;28;20405;-73
2023/09/23 06:08:00;;;;;;;;;;;;;;;36.53;25.77;98892.56;4992827;28;19984;-72
2023/09/23 06:10:25;;;;;;;;;;;;;;;36.67;25.27;98898.97;4993913;28;19918;-73
2023/09/23 06:12:50;;;;;;;;;;;;;;;36.82;25.67;98905.41;4994063;28;19918;-72
2023/09/23 06:15:16;;;;;;;;;;;;;;;36.97;24.97;98905.25;4993546;28;19918;-73
2023/09/23 06:17:41;;;;;;;;;;;;;;;37.19;25.00;98915.63;4992836;28;19925;-71
2023/09/23 06:20:07;;;;;;;;;;;;;;;37.24;25.12;98915.63;4993788;28;19992;-72
2023/09/23 06:22:33;;;;;;;;;;;;;;;37.36;24.70;98915.19;4993825;28;19917;-72
2023/09/23 06:24:58;;;;;;;;;;;;;;;37.51;24.85;98913.41;4992441;28;19973;-72
2023/09/23 06:27:23;;;;;;;;;;;;;;;37.61;24.37;98913.28;4993547;28;19918;-72
2023/09/23 06:29:49;;;;;;;;;;;;;;;37.73;24.23;98921.84;4993706;28;19924;-72
2023/09/23 06:32:14;;;;;;;;;;;;;;;37.82;24.16;98922.03;4993794;28;19925;-72
2023/09/23 06:34:39;;;;;;;;;;;;;;;37.98;24.03;98917.97;4992260;28;19918;-72
2023/09/23 06:37:05;;;;;;;;;;;;;;;38.12;23.77;98926.22;4993534;28;19925;-73
2023/09/23 06:39:30;;;;;;;;;;;;;;;38.23;23.47;98923.41;4993103;28;19918;-73
2023/09/23 06:41:55;;;;;;;;;;;;;;;38.34;23.41;98922.94;4993870;28;20377;-72
2023/09/23 06:44:21;;;;;;;;;;;;;;;38.38;23.15;98925.88;4992713;28;19980;-72
2023/09/23 06:46:46;;;;;;;;;;;;;;;38.47;23.59;98926.00;4994052;28;19969;-72
2023/09/23 06:49:11;;;;;;;;;;;;;;;38.59;23.51;98929.09;4993696;28;19917;-72
2023/09/23 06:51:37;;;;;;;;;;;;;;;38.73;23.02;98926.44;4992747;28;19922;-72
2023/09/23 06:54:02;;;;;;;;;;;;;;;38.83;23.17;98925.44;4993425;28;19918;-71
2023/09/23 06:56:28;;;;;;;;;;;;;;;38.94;22.93;98928.81;4993191;28;19936;-72
2023/09/23 06:58:53;;;;;;;;;;;;;;;39.04;22.75;98934.88;4993482;28;20341;-72
2023/09/23 07:01:21;;;;;;;;;;;;;;;39.12;22.88;98930.66;4993331;28;19965;-72
2023/09/23 07:03:46;;;;;;;;;;;;;;;39.29;22.29;98935.53;4993416;28;19918;-73
2023/09/23 07:06:12;;;;;;;;;;;;;;;39.35;22.51;98939.00;4993504;28;19918;-72
2023/09/23 07:08:37;;;;;;;;;;;;;;;39.41;22.47;98945.94;4992260;28;19964;-73
2023/09/23 07:11:02;;;;;;;;;;;;;;;39.51;22.40;98943.03;4992824;28;19917;-72
2023/09/23 07:13:28;;;;;;;;;;;;;;;39.59;22.16;98950.53;4992239;28;19991;-71
2023/09/23 07:15:53;;;;;;;;;;;;;;;39.68;22.25;98942.44;4993157;28;20351;-73
2023/09/23 07:18:18;;;;;;;;;;;;;;;39.79;22.30;98943.03;4993590;28;19917;-73
2023/09/23 07:20:44;;;;;;;;;;;;;;;39.90;22.32;98944.44;4975292;28;19917;-73
2023/09/23 07:23:09;;;;;;;;;;;;;;;39.98;22.10;98949.19;4993303;28;19975;-72
2023/09/23 07:25:38;;;;;;;;;;;;;;;40.05;22.01;98956.97;4992056;28;19964;-73
2023/09/23 07:28:03;;;;;;;;;;;;;;;40.14;22.08;98946.94;4992074;28;19922;-72
2023/09/23 07:30:31;;;;;;;;;;;;;;;40.23;22.25;98946.19;4991931;28;20324;-73
2023/09/23 07:32:57;;;;;;;;;;;;;;;40.28;22.14;98949.63;4992316;28;19925;-72
2023/09/23 07:35:22;;;;;;;;;;;;;;;40.42;22.06;98948.78;4992179;28;19926;-72
2023/09/23 07:37:47;;;;;;;;;;;;;;;40.53;21.67;98938.41;4993178;28;19922;-74
2023/09/23 07:40:13;;;;;;;;;;;;;;;40.63;21.56;98944.44;4992990;28;19924;-72
2023/09/23 07:42:38;;;;;;;;;;;;;;;40.72;21.29;98949.16;4993153;28;20275;-71
2023/09/23 07:45:04;;;;;;;;;;;;;;;40.80;21.19;98942.91;4993406;28;19925;-73
2023/09/23 07:47:29;;;;;;;;;;;;;;;40.86;21.30;98939.78;4993317;28;19918;-74
2023/09/23 07:49:54;;;;;;;;;;;;;;;40.95;21.45;98942.56;4993573;28;19918;-72
2023/09/23 07:52:20;;;;;;;;;;;;;;;41.00;21.33;98942.41;4996597;28;20289;-72
2023/09/23 07:54:45;;;;;;;;;;;;;;;41.08;21.37;98940.84;4995185;28;19972;-72
2023/09/23 07:57:10;;;;;;;;;;;;;;;41.14;21.07;98947.00;4996472;28;19965;-73
2023/09/23 07:59:36;;;;;;;;;;;;;;;41.22;21.15;98933.34;4996763;28;20309;-72
2023/09/23 08:02:01;;;;;;;;;;;;;;;41.29;20.90;98938.38;4996898;28;20373;-71
2023/09/23 08:04:26;;;;;;;;;;;;;;;41.36;20.85;98932.47;4996582;28;19925;-72
2023/09/23 08:06:51;;;;;;;;;;;;;;;41.45;20.74;98941.53;4995085;28;19922;-72
2023/09/23 08:09:17;;;;;;;;;;;;;;;41.51;20.77;98939.44;4995063;28;20035;-72
2023/09/23 08:11:42;;;;;;;;;;;;;;;41.58;20.56;98935.09;4996319;28;19918;-71
2023/09/23 08:14:07;;;;;;;;;;;;;;;41.66;20.66;98929.97;4996374;28;20404;-72
2023/09/23 08:16:33;;;;;;;;;;;;;;;41.72;20.49;98923.22;4995762;28;19924;-73
2023/09/23 08:18:58;;;;;;;;;;;;;;;41.78;20.36;98926.63;4996279;28;19921;-73
2023/09/23 08:21:24;;;;;;;;;;;;;;;41.86;20.13;98923.09;4995022;28;20008;-72
2023/09/23 08:23:49;;;;;;;;;;;;;;;41.94;20.36;98917.63;4994856;28;19960;-72
2023/09/23 08:26:15;;;;;;;;;;;;;;;41.93;20.38;98913.25;4996095;28;20013;-73
2023/09/23 08:28:42;;;;;;;;;;;;;;;42.04;20.51;98915.69;4995772;28;19980;-73
2023/09/23 08:31:07;;;;;;;;;;;;;;;42.07;20.20;98917.78;4995932;28;20386;-72
2023/09/23 08:33:32;;;;;;;;;;;;;;;42.17;19.47;98916.69;4994493;28;19925;-72
2023/09/23 08:35:58;;;;;;;;;;;;;;;42.11;19.93;98914.09;4994325;28;19921;-73
2023/09/23 08:38:23;;;;;;;;;;;;;;;42.17;19.78;98913.94;4995495;28;20385;-72
2023/09/23 08:40:48;;;;;;;;;;;;;;;42.19;19.89;98908.94;4995636;28;19925;-73
2023/09/23 08:43:14;;;;;;;;;;;;;;;42.23;20.05;98910.72;4994146;28;19925;-73
2023/09/23 08:45:43;;;;;;;;;;;;;;;42.27;20.25;98917.16;4977688;28;19918;-73
2023/09/23 08:48:08;;;;;;;;;;;;;;;42.28;20.09;98910.53;4995799;28;19921;-73
2023/09/23 08:50:34;;;;;;;;;;;;;;;42.28;20.05;98905.06;4994053;28;19917;-73
2023/09/23 08:52:59;;;;;;;;;;;;;;;42.29;19.77;98901.19;4977968;28;20377;-72
2023/09/23 08:55:25;;;;;;;;;;;;;;;42.35;19.82;98906.50;4994044;28;20378;-74
2023/09/23 08:57:50;;;;;;;;;;;;;;;42.37;19.79;98909.72;4977706;28;20012;-73
2023/09/23 09:00:18;;;;;;;;;;;;;;;42.42;19.51;98898.59;4977717;28;19918;-73
2023/09/23 09:02:43;;;;;;;;;;;;;;;42.48;19.83;98897.31;4994617;28;19917;-72
2023/09/23 09:05:09;;;;;;;;;;;;;;;42.44;19.69;98891.63;4993918;28;19925;-72
2023/09/23 09:07:34;;;;;;;;;;;;;;;42.45;19.59;98895.19;4995080;28;19961;-72
2023/09/23 09:09:59;;;;;;;;;;;;;;;42.45;19.58;98898.75;4995210;28;19918;-73
2023/09/23 09:12:25;;;;;;;;;;;;;;;42.46;19.88;98896.78;4994284;28;19922;-72
2023/09/23 09:14:53;;;;;;;;;;;;;;;42.43;19.53;98901.00;4994010;28;19918;-73
2023/09/23 09:17:19;;;;;;;;;;;;;;;42.38;19.73;98892.94;4977734;28;19929;-72
2023/09/23 09:19:44;;;;;;;;;;;;;;;42.36;19.41;98886.97;4978082;28;19918;-73
2023/09/23 09:22:10;;;;;;;;;;;;;;;42.35;19.63;98881.81;4994782;28;19917;-72
2023/09/23 09:24:35;;;;;;;;;;;;;;;42.32;19.69;98891.53;4994893;28;20008;-72
2023/09/23 09:27:00;;;;;;;;;;;;;;;42.17;19.59;98892.81;4993809;28;20305;-71
2023/09/23 09:29:26;;;;;;;;;;;;;;;42.12;19.60;98884.72;4993334;28;19922;-72
2023/09/23 09:31:51;;;;;;;;;;;;;;;42.06;19.65;98883.28;4994865;28;19918;-73
2023/09/23 09:34:18;;;;;;;;;;;;;;;42.01;19.94;98880.69;4993328;28;19925;-73
2023/09/23 09:36:44;;;;;;;;;;;;;;;41.90;19.77;98883.75;4993614;28;20005;-73
2023/09/23 09:39:10;;;;;;;;;;;;;;;41.79;19.86;98878.91;4994415;28;19918;-73
2023/09/23 09:41:38;;;;;;;;;;;;;;;41.78;20.30;98882.78;4993579;28;19921;-72
2023/09/23 09:44:04;;;;;;;;;;;;;;;41.67;20.06;98874.03;4994198;28;19925;-76
2023/09/23 09:46:30;;;;;;;;;;;;;;;41.64;20.10;98878.22;4993408;28;19917;-73
2023/09/23 09:48:57;;;;;;;;;;;;;;;41.58;20.22;98880.31;4993260;28;19960;-72
2023/09/23 09:51:22;;;;;;;;;;;;;;;41.51;20.08;98869.00;4994166;28;20348;-72
2023/09/23 09:53:47;;;;;;;;;;;;;;;41.41;20.40;98869.31;4976747;28;19929;-71
2023/09/23 09:56:13;;;;;;;;;;;;;;;41.36;20.26;98869.47;4976444;28;19926;-73
2023/09/23 09:58:38;;;;;;;;;;;;;;;41.28;20.61;98864.75;4993039;28;19932;-72
2023/09/23 10:01:04;;;;;;;;;;;;;;;41.22;20.62;98864.09;4994277;28;20389;-72
2023/09/23 10:03:29;;;;;;;;;;;;;;;41.12;20.82;98862.44;4992845;28;20274;-72
2023/09/23 10:05:58;;;;;;;;;;;;;;;40.98;20.23;98859.03;4992894;28;20322;-72
2023/09/23 10:08:24;;;;;;;;;;;;;;;40.90;20.47;98857.03;4976414;28;19961;-72
2023/09/23 10:10:50;;;;;;;;;;;;;;;40.80;20.70;98844.41;4992816;28;19918;-72
2023/09/23 10:13:22;;;;;;;;;;;;;;;40.63;20.75;98851.44;4992748;28;20349;-72
2023/09/23 10:15:47;;;;;;;;;;;;;;;40.51;20.91;98832.06;4993031;28;20072;-71
2023/09/23 10:18:13;;;;;;;;;;;;;;;40.43;20.98;98833.63;4976357;28;20049;-73
2023/09/23 10:20:42;;;;;;;;;;;;;;;40.36;21.21;98826.94;4992646;28;19979;-73
2023/09/23 10:23:08;;;;;;;;;;;;;;;40.19;21.45;98830.38;4976504;28;19924;-72
2023/09/23 10:25:37;;;;;;;;;;;;;;;40.12;21.50;98822.59;4992418;28;19918;-72
2023/09/23 10:28:04;;;;;;;;;;;;;;;40.01;21.43;98818.50;4992238;28;19918;-74
2023/09/23 10:30:29;;;;;;;;;;;;;;;39.84;21.54;98817.25;4976279;28;19922;-71
2023/09/23 10:32:54;;;;;;;;;;;;;;;39.67;21.88;98817.09;4992388;28;20279;-72
2023/09/23 10:35:23;;;;;;;;;;;;;;;39.54;22.16;98810.56;4993792;28;19940;-74
2023/09/23 10:37:48;;;;;;;;;;;;;;;39.42;21.99;98809.13;4976031;28;20428;-72
2023/09/23 10:40:14;;;;;;;;;;;;;;;39.33;22.12;98804.69;4992286;28;19929;-71
2023/09/23 10:42:41;;;;;;;;;;;;;;;39.19;21.81;98796.50;4992466;28;19918;-71
2023/09/23 10:45:06;;;;;;;;;;;;;;;39.10;22.28;98799.16;4993772;28;20007;-73
2023/09/23 10:47:32;;;;;;;;;;;;;;;38.99;22.21;98804.00;4992297;28;19961;-72
2023/09/23 10:49:58;;;;;;;;;;;;;;;38.90;22.22;98797.63;4994146;28;19918;-73
2023/09/23 10:52:23;;;;;;;;;;;;;;;38.75;22.67;98795.22;4993452;28;19918;-71
2023/09/23 10:54:48;;;;;;;;;;;;;;;38.62;22.55;98792.16;4992130;28;19929;-72
2023/09/23 10:57:14;;;;;;;;;;;;;;;38.52;23.00;98781.41;4975570;28;19929;-73
2023/09/23 10:59:39;;;;;;;;;;;;;;;38.43;23.05;98777.75;4992017;28;19918;-72
2023/09/23 11:02:05;;;;;;;;;;;;;;;38.35;23.33;98776.53;4993369;28;19925;-71
2023/09/23 11:04:30;;;;;;;;;;;;;;;38.21;23.44;98773.78;4992058;28;20308;-72
2023/09/23 11:06:56;;;;;;;;;;;;;;;38.09;23.13;98779.66;4993138;28;19922;-73
2023/09/23 11:09:22;;;;;;;;;;;;;;;38.03;23.48;98764.50;4992383;28;20289;-73
2023/09/23 11:11:47;;;;;;;;;;;;;;;37.90;23.50;98754.38;4993371;28;19917;-72
2023/09/23 11:14:13;;;;;;;;;;;;;;;37.78;23.02;98763.00;4991948;28;20404;-72
2023/09/23 11:16:42;;;;;;;;;;;;;;;37.71;23.13;98757.94;4993616;28;20052;-73
2023/09/23 11:19:07;;;;;;;;;;;;;;;37.58;23.43;98754.03;4991684;28;20286;-72
2023/09/23 11:21:46;;;;;;;;;;;;;;;37.46;23.56;98743.59;4991752;28;19924;-73
2023/09/23 11:24:11;;;;;;;;;;;;;;;37.34;23.58;98737.75;4992023;28;19918;-71
2023/09/23 11:26:40;;;;;;;;;;;;;;;37.20;23.53;98734.94;4996673;28;19918;-73
2023/09/23 11:29:05;;;;;;;;;;;;;;;37.08;23.43;98729.09;4995787;28;20432;-73
2023/09/23 11:31:31;;;;;;;;;;;;;;;36.99;23.90;98736.28;4995576;28;20393;-72
2023/09/23 11:33:56;;;;;;;;;;;;;;;36.91;23.97;98724.97;4994992;28;19953;-72
2023/09/23 11:36:22;;;;;;;;;;;;;;;36.81;24.06;98719.63;4995489;28;20309;-73
2023/09/23 11:38:47;;;;;;;;;;;;;;;36.69;23.91;98714.59;4996617;28;19925;-73
2023/09/23 11:41:12;;;;;;;;;;;;;;;36.61;23.85;98717.13;4996938;28;19918;-72
2023/09/23 11:43:38;;;;;;;;;;;;;;;36.51;24.00;98710.72;4995293;28;19922;-72
2023/09/23 11:46:03;;;;;;;;;;;;;;;36.47;24.08;98715.13;4995309;28;19918;-72
2023/09/23 11:48:28;;;;;;;;;;;;;;;36.42;23.92;98709.75;4996341;28;19922;-72
2023/09/23 11:50:54;;;;;;;;;;;;;;;36.34;23.94;98707.63;4995290;28;19917;-73
2023/09/23 11:53:19;;;;;;;;;;;;;;;36.22;24.13;98708.00;4996638;28;20377;-72
2023/09/23 11:55:45;;;;;;;;;;;;;;;36.18;24.09;98690.66;4994634;28;20045;-72
2023/09/23 11:58:10;;;;;;;;;;;;;;;36.12;24.00;98694.50;4996220;28;20017;-72
2023/09/23 12:00:36;;;;;;;;;;;;;;;36.03;24.13;98707.91;4994693;28;20448;-73
2023/09/23 12:03:02;;;;;;;;;;;;;;;35.98;23.93;98697.09;4994976;28;19969;-72
2023/09/23 12:05:30;;;;;;;;;;;;;;;35.92;24.02;98690.09;4996235;28;19922;-71
2023/09/23 12:07:58;;;;;;;;;;;;;;;35.89;23.75;98687.94;4996585;28;19917;-72
2023/09/23 12:10:27;;;;;;;;;;;;;;;35.84;23.92;98686.88;4995311;28;19918;-71
2023/09/23 12:12:53;;;;;;;;;;;;;;;35.80;23.79;98685.84;4978562;28;19918;-71
2023/09/23 12:15:19;;;;;;;;;;;;;;;35.76;23.94;98684.00;4994798;28;19922;-71
2023/09/23 12:17:44;;;;;;;;;;;;;;;35.72;23.42;98677.47;4996015;28;19918;-73
2023/09/23 12:20:11;;;;;;;;;;;;;;;35.63;23.75;98683.50;4994633;28;19918;-74
2023/09/23 12:22:39;;;;;;;;;;;;;;;35.59;23.43;98687.06;4994622;28;19925;-72
2023/09/23 12:25:06;;;;;;;;;;;;;;;35.57;23.71;98683.84;4995907;28;19918;-72
2023/09/23 12:27:31;;;;;;;;;;;;;;;35.56;23.83;98674.06;4995443;28;19940;-72
2023/09/23 12:29:56;;;;;;;;;;;;;;;35.54;23.89;98676.25;4994350;28;20362;-71
2023/09/23 12:32:22;;;;;;;;;;;;;;;35.49;23.95;98677.91;4994150;28;20436;-72
2023/09/23 12:34:49;;;;;;;;;;;;;;;35.45;23.60;98665.97;4994382;28;19924;-73
2023/09/23 12:37:14;;;;;;;;;;;;;;;35.40;23.72;98671.47;4976996;28;19918;-72
2023/09/23 12:39:40;;;;;;;;;;;;;;;35.39;23.75;98664.41;4977975;28;19925;-72
2023/09/23 12:42:05;;;;;;;;;;;;;;;35.39;23.57;98669.81;4995131;28;19922;-72